createdAt,value
2023-03-22T00:00:38.674Z,7.04
2023-03-22T00:01:38.371Z,6.07
2023-03-22T00:02:38.418Z,7.04
2023-03-22T00:03:38.450Z,7.36
2023-03-22T00:04:39.023Z,7.69
2023-03-22T00:05:38.326Z,6.40
2023-03-22T00:06:38.329Z,6.07
2023-03-22T00:07:38.316Z,7.36
2023-03-22T00:08:38.304Z,5.75
2023-03-22T00:09:38.607Z,5.43
2023-03-22T00:10:38.607Z,7.36
2023-03-22T00:11:38.303Z,7.36
2023-03-22T00:12:38.256Z,7.36
2023-03-22T00:13:38.247Z,7.04
2023-03-22T00:14:38.586Z,7.04
2023-03-22T00:15:38.233Z,6.07
2023-03-22T00:16:38.218Z,7.36
2023-03-22T00:17:38.204Z,7.04
2023-03-22T00:18:38.199Z,7.36
2023-03-22T00:19:38.890Z,7.69
2023-03-22T00:20:38.633Z,7.04
2023-03-22T00:21:38.165Z,7.04
2023-03-22T00:22:38.155Z,6.07
2023-03-22T00:23:38.144Z,7.04
2023-03-22T00:24:38.496Z,7.69
2023-03-22T00:25:38.120Z,6.72
2023-03-22T00:26:38.135Z,3.82
2023-03-22T00:27:38.112Z,6.07
2023-03-22T00:28:38.105Z,7.04
2023-03-22T00:29:38.422Z,7.04
2023-03-22T00:30:38.429Z,7.04
2023-03-22T00:31:38.126Z,6.72
2023-03-22T00:32:38.059Z,6.07
2023-03-22T00:33:38.045Z,6.72
2023-03-22T00:34:38.042Z,7.04
2023-03-22T00:35:38.345Z,5.75
2023-03-22T00:36:38.073Z,4.79
2023-03-22T00:37:38.000Z,6.72
2023-03-22T00:38:45.317Z,7.69
2023-03-22T00:39:37.983Z,6.72
2023-03-22T00:40:38.626Z,6.72
2023-03-22T00:41:37.956Z,5.75
2023-03-22T00:42:37.956Z,5.11
2023-03-22T00:43:37.945Z,7.36
2023-03-22T00:44:37.942Z,6.72
2023-03-22T00:45:38.327Z,6.07
2023-03-22T00:46:37.927Z,6.40
2023-03-22T00:47:37.897Z,4.46
2023-03-22T00:48:37.896Z,5.11
2023-03-22T00:49:37.879Z,7.69
2023-03-22T00:50:38.394Z,6.72
2023-03-22T00:51:37.863Z,6.72
2023-03-22T00:52:37.848Z,6.40
2023-03-22T00:53:38.915Z,7.04
2023-03-22T00:54:37.843Z,7.36
2023-03-22T00:55:38.204Z,6.72
2023-03-22T00:56:37.809Z,6.72
2023-03-22T00:57:37.800Z,6.72
2023-03-22T00:58:37.796Z,6.72
2023-03-22T00:59:37.800Z,7.36
2023-03-22T01:00:38.761Z,7.04
2023-03-22T01:01:37.818Z,7.69
2023-03-22T01:04:05.072Z,6.72
2023-03-22T01:04:10.132Z,7.36
2023-03-22T01:05:10.123Z,7.69
2023-03-22T01:06:10.124Z,6.72
2023-03-22T01:07:10.082Z,6.72
2023-03-22T01:08:10.083Z,7.04
2023-03-22T01:09:10.063Z,8.33
2023-03-22T01:10:10.115Z,7.04
2023-03-22T01:11:10.064Z,6.07
2023-03-22T01:12:10.029Z,5.75
2023-03-22T01:13:10.034Z,6.72
2023-03-22T01:14:10.007Z,7.04
2023-03-22T01:15:10.302Z,7.04
2023-03-22T01:16:10.055Z,8.97
2023-03-22T01:17:09.976Z,7.36
2023-03-22T01:18:09.962Z,7.04
2023-03-22T01:19:09.971Z,7.04
2023-03-22T01:20:10.290Z,7.04
2023-03-22T01:21:09.933Z,7.04
2023-03-22T01:22:09.917Z,5.11
2023-03-22T01:23:09.912Z,6.72
2023-03-22T01:24:09.894Z,5.75
2023-03-22T01:25:10.250Z,6.40
2023-03-22T01:26:09.877Z,6.72
2023-03-22T01:27:09.876Z,7.36
2023-03-22T01:28:09.855Z,7.04
2023-03-22T01:29:09.850Z,7.04
2023-03-22T01:30:10.129Z,7.69
2023-03-22T01:31:09.840Z,6.72
2023-03-22T01:32:09.814Z,6.72
2023-03-22T01:33:09.828Z,7.36
2023-03-22T01:34:09.798Z,7.04
2023-03-22T01:35:10.162Z,8.01
2023-03-22T01:36:09.792Z,6.07
2023-03-22T01:37:09.769Z,6.40
2023-03-22T01:38:09.755Z,7.36
2023-03-22T01:39:09.744Z,8.33
2023-03-22T01:40:09.864Z,6.72
2023-03-22T01:41:09.725Z,7.36
2023-03-22T01:42:09.711Z,7.04
2023-03-22T01:43:09.704Z,6.72
2023-03-22T01:44:09.687Z,6.07
2023-03-22T01:45:09.976Z,7.04
2023-03-22T01:46:09.756Z,7.36
2023-03-22T01:47:09.663Z,5.75
2023-03-22T01:48:09.775Z,7.04
2023-03-22T01:49:09.679Z,6.07
2023-03-22T01:50:09.987Z,7.04
2023-03-22T01:51:09.623Z,8.33
2023-03-22T01:52:09.609Z,7.36
2023-03-22T01:53:09.606Z,5.43
2023-03-22T01:54:09.597Z,5.75
2023-03-22T01:55:09.890Z,6.07
2023-03-22T01:56:09.568Z,7.36
2023-03-22T01:57:09.562Z,7.69
2023-03-22T01:58:09.546Z,7.36
2023-03-22T01:59:09.553Z,7.36
2023-03-22T02:00:09.827Z,8.33
2023-03-22T02:01:09.569Z,6.40
2023-03-22T02:02:09.508Z,6.72
2023-03-22T02:03:09.502Z,7.36
2023-03-22T02:04:09.498Z,7.36
2023-03-22T02:05:10.017Z,7.36
2023-03-22T02:06:09.465Z,6.40
2023-03-22T02:07:09.457Z,6.40
2023-03-22T02:08:09.456Z,6.07
2023-03-22T02:09:09.433Z,7.36
2023-03-22T02:10:09.733Z,6.72
2023-03-22T02:11:09.413Z,6.40
2023-03-22T02:12:09.400Z,6.72
2023-03-22T02:13:09.397Z,6.40
2023-03-22T02:14:09.379Z,7.36
2023-03-22T02:15:09.371Z,7.04
2023-03-22T02:16:09.672Z,7.04
2023-03-22T02:17:09.359Z,7.36
2023-03-22T02:18:09.338Z,6.72
2023-03-22T02:19:09.331Z,7.36
2023-03-22T02:20:09.325Z,6.72
2023-03-22T02:21:09.674Z,6.72
2023-03-22T02:22:09.296Z,7.04
2023-03-22T02:23:09.292Z,6.72
2023-03-22T02:24:09.274Z,6.40
2023-03-22T02:25:09.278Z,4.79
2023-03-22T02:26:09.593Z,7.04
2023-03-22T02:27:09.250Z,7.04
2023-03-22T02:28:09.235Z,8.01
2023-03-22T02:29:09.225Z,7.69
2023-03-22T02:30:09.211Z,6.07
2023-03-22T02:31:09.542Z,6.72
2023-03-22T02:32:09.190Z,6.07
2023-03-22T02:33:09.188Z,6.40
2023-03-22T02:34:09.174Z,5.11
2023-03-22T02:35:09.169Z,6.07
2023-03-22T02:36:09.453Z,7.04
2023-03-22T02:37:09.146Z,7.04
2023-03-22T02:38:09.129Z,5.75
2023-03-22T02:39:09.123Z,7.04
2023-03-22T02:40:09.110Z,7.04
2023-03-22T02:41:09.425Z,4.79
2023-03-22T02:42:09.087Z,6.40
2023-03-22T02:43:09.079Z,8.33
2023-03-22T02:44:09.065Z,8.01
2023-03-22T02:45:09.063Z,6.72
2023-03-22T02:46:09.452Z,6.72
2023-03-22T02:47:09.038Z,6.72
2023-03-22T02:48:09.089Z,7.36
2023-03-22T02:49:09.018Z,5.43
2023-03-22T02:50:09.003Z,7.04
2023-03-22T02:51:09.277Z,5.11
2023-03-22T02:52:08.984Z,6.07
2023-03-22T02:53:08.975Z,6.72
2023-03-22T02:54:08.958Z,6.07
2023-03-22T02:55:08.951Z,8.01
2023-03-22T02:56:09.322Z,7.69
2023-03-22T02:57:08.935Z,6.72
2023-03-22T02:58:08.920Z,5.11
2023-03-22T02:59:08.913Z,8.33
2023-03-22T03:00:08.896Z,2.53
2023-03-22T03:01:09.022Z,6.72
2023-03-22T03:02:08.952Z,7.36
2023-03-22T03:03:08.872Z,5.11
2023-03-22T03:04:08.864Z,5.43
2023-03-22T03:05:08.847Z,6.40
2023-03-22T03:06:08.861Z,7.04
2023-03-22T03:07:08.825Z,8.33
2023-03-22T03:08:08.818Z,5.43
2023-03-22T03:09:08.811Z,6.40
2023-03-22T03:10:08.800Z,6.40
2023-03-22T03:11:09.069Z,6.72
2023-03-22T03:12:08.773Z,4.79
2023-03-22T03:13:08.771Z,7.04
2023-03-22T03:14:08.756Z,6.72
2023-03-22T03:15:08.740Z,5.43
2023-03-22T03:16:09.176Z,7.04
2023-03-22T03:17:08.722Z,7.04
2023-03-22T03:18:08.713Z,6.72
2023-03-22T03:19:08.703Z,7.04
2023-03-22T03:20:08.694Z,5.75
2023-03-22T03:21:09.016Z,7.04
2023-03-22T03:22:08.679Z,6.07
2023-03-22T03:23:08.657Z,6.72
2023-03-22T03:24:08.656Z,6.40
2023-03-22T03:25:08.639Z,7.36
2023-03-22T03:26:08.975Z,6.07
2023-03-22T03:27:08.615Z,6.07
2023-03-22T03:28:08.615Z,7.36
2023-03-22T03:29:08.601Z,6.40
2023-03-22T03:30:08.594Z,7.04
2023-03-22T03:31:08.602Z,7.04
2023-03-22T03:32:08.570Z,6.72
2023-03-22T03:33:08.559Z,7.04
2023-03-22T03:34:08.549Z,8.33
2023-03-22T03:35:08.533Z,7.04
2023-03-22T03:36:08.868Z,4.46
2023-03-22T03:37:08.510Z,5.43
2023-03-22T03:38:08.504Z,6.72
2023-03-22T03:39:08.492Z,6.40
2023-03-22T03:40:08.488Z,6.40
2023-03-22T03:41:08.771Z,7.04
2023-03-22T03:42:08.465Z,7.04
2023-03-22T03:43:08.446Z,4.79
2023-03-22T03:44:08.442Z,6.72
2023-03-22T03:45:08.453Z,6.40
2023-03-22T03:46:09.018Z,4.46
2023-03-22T03:47:08.410Z,6.72
2023-03-22T03:48:08.475Z,6.72
2023-03-22T03:49:08.389Z,6.07
2023-03-22T03:50:08.379Z,5.43
2023-03-22T03:51:08.631Z,6.40
2023-03-22T03:52:08.360Z,6.40
2023-03-22T03:53:08.345Z,6.07
2023-03-22T03:54:08.339Z,6.72
2023-03-22T03:55:08.327Z,4.79
2023-03-22T03:56:08.684Z,6.40
2023-03-22T03:57:08.305Z,7.04
2023-03-22T03:58:08.300Z,6.72
2023-03-22T03:59:08.290Z,7.36
2023-03-22T04:00:08.276Z,7.36
2023-03-22T04:01:08.283Z,6.72
2023-03-22T04:02:08.289Z,6.72
2023-03-22T04:03:08.242Z,6.40
2023-03-22T04:04:08.261Z,6.07
2023-03-22T04:05:08.215Z,3.82
2023-03-22T04:06:08.567Z,6.72
2023-03-22T04:07:08.199Z,6.40
2023-03-22T04:08:08.189Z,7.04
2023-03-22T04:09:08.177Z,6.72
2023-03-22T04:10:08.173Z,8.01
2023-03-22T04:11:08.515Z,6.40
2023-03-22T04:12:08.155Z,6.72
2023-03-22T04:13:08.135Z,6.07
2023-03-22T04:14:08.130Z,7.04
2023-03-22T04:15:08.119Z,5.43
2023-03-22T04:16:08.449Z,7.04
2023-03-22T04:17:08.098Z,7.04
2023-03-22T04:18:08.099Z,6.72
2023-03-22T04:19:08.071Z,6.72
2023-03-22T04:20:08.075Z,6.72
2023-03-22T04:21:08.324Z,6.72
2023-03-22T04:22:08.045Z,5.43
2023-03-22T04:23:08.030Z,6.40
2023-03-22T04:24:08.033Z,4.79
2023-03-22T04:25:08.008Z,7.69
2023-03-22T04:26:08.466Z,6.72
2023-03-22T04:27:07.990Z,7.04
2023-03-22T04:28:07.982Z,7.04
2023-03-22T04:29:07.976Z,6.07
2023-03-22T04:30:07.965Z,7.04
2023-03-22T04:31:08.289Z,6.40
2023-03-22T04:32:07.942Z,3.50
2023-03-22T04:33:07.933Z,7.04
2023-03-22T04:34:07.917Z,6.72
2023-03-22T04:35:07.906Z,6.72
2023-03-22T04:36:08.243Z,7.04
2023-03-22T04:37:07.883Z,5.75
2023-03-22T04:38:07.885Z,6.72
2023-03-22T04:39:07.866Z,7.04
2023-03-22T04:40:07.856Z,8.33
2023-03-22T04:41:07.854Z,7.04
2023-03-22T04:42:07.837Z,7.04
2023-03-22T04:43:07.839Z,5.75
2023-03-22T04:44:07.808Z,7.36
2023-03-22T04:45:07.812Z,6.07
2023-03-22T04:46:07.955Z,6.40
2023-03-22T04:47:07.792Z,6.07
2023-03-22T04:48:07.869Z,5.11
2023-03-22T04:49:07.757Z,6.72
2023-03-22T04:50:07.712Z,6.72
2023-03-22T04:51:07.986Z,6.07
2023-03-22T04:52:07.675Z,7.36
2023-03-22T04:53:07.664Z,6.72
2023-03-22T04:54:07.671Z,8.01
2023-03-22T04:55:07.640Z,6.40
2023-03-22T04:56:08.054Z,6.72
2023-03-22T04:57:07.615Z,7.04
2023-03-22T04:58:07.610Z,6.72
2023-03-22T04:59:07.604Z,6.72
2023-03-22T05:00:07.588Z,6.72
2023-03-22T05:01:07.594Z,6.07
2023-03-22T05:02:07.568Z,4.46
2023-03-22T05:03:07.634Z,6.40
2023-03-22T05:04:07.547Z,6.07
2023-03-22T05:05:07.533Z,6.40
2023-03-22T05:06:07.819Z,6.72
2023-03-22T05:07:07.510Z,5.75
2023-03-22T05:08:07.507Z,5.43
2023-03-22T05:09:07.488Z,6.07
2023-03-22T05:10:07.493Z,6.72
2023-03-22T05:11:07.512Z,6.72
2023-03-22T05:12:07.464Z,6.72
2023-03-22T05:13:07.453Z,5.75
2023-03-22T05:14:07.505Z,6.72
2023-03-22T05:15:07.433Z,7.36
2023-03-22T05:16:07.526Z,8.01
2023-03-22T05:17:07.410Z,6.72
2023-03-22T05:18:07.398Z,6.72
2023-03-22T05:19:07.385Z,6.72
2023-03-22T05:20:07.392Z,6.07
2023-03-22T05:21:07.396Z,6.40
2023-03-22T05:22:07.358Z,6.72
2023-03-22T05:23:07.344Z,6.72
2023-03-22T05:24:07.338Z,6.07
2023-03-22T05:25:07.325Z,5.75
2023-03-22T05:26:07.317Z,6.40
2023-03-22T05:27:07.819Z,6.40
2023-03-22T05:28:07.312Z,6.72
2023-03-22T05:29:07.283Z,5.75
2023-03-22T05:30:07.274Z,7.04
2023-03-22T05:31:07.308Z,6.40
2023-03-22T05:32:07.542Z,6.40
2023-03-22T05:33:07.235Z,6.72
2023-03-22T05:34:07.237Z,6.40
2023-03-22T05:35:07.221Z,7.04
2023-03-22T05:36:07.214Z,4.46
2023-03-22T05:37:07.214Z,8.33
2023-03-22T05:38:07.199Z,6.72
2023-03-22T05:39:07.185Z,2.53
2023-03-22T05:40:07.180Z,7.04
2023-03-22T05:41:07.157Z,6.40
2023-03-22T05:42:07.559Z,6.40
2023-03-22T05:43:07.153Z,4.46
2023-03-22T05:44:07.137Z,6.72
2023-03-22T05:45:07.120Z,7.04
2023-03-22T05:46:07.114Z,6.72
2023-03-22T05:47:07.486Z,6.72
2023-03-22T05:48:07.193Z,8.33
2023-03-22T05:49:07.076Z,8.65
2023-03-22T05:50:07.072Z,6.72
2023-03-22T05:51:07.062Z,6.40
2023-03-22T05:52:07.069Z,6.07
2023-03-22T05:53:07.053Z,8.01
2023-03-22T05:54:07.032Z,7.04
2023-03-22T05:55:07.024Z,6.72
2023-03-22T05:56:07.013Z,7.69
2023-03-22T05:57:07.039Z,7.36
2023-03-22T05:58:07.020Z,6.72
2023-03-22T05:59:06.991Z,8.01
2023-03-22T06:00:06.987Z,8.65
2023-03-22T06:01:06.966Z,6.40
2023-03-22T06:02:07.021Z,6.72
2023-03-22T06:03:07.059Z,7.04
2023-03-22T06:04:06.932Z,6.72
2023-03-22T06:05:06.914Z,5.75
2023-03-22T06:06:06.924Z,8.33
2023-03-22T06:07:07.270Z,7.36
2023-03-22T06:08:06.891Z,7.04
2023-03-22T06:09:16.519Z,7.36
2023-03-22T06:10:06.871Z,7.04
2023-03-22T06:11:06.846Z,8.01
2023-03-22T06:12:06.874Z,6.72
2023-03-22T06:13:06.857Z,6.07
2023-03-22T06:14:06.824Z,7.36
2023-03-22T06:15:06.816Z,6.72
2023-03-22T06:16:06.876Z,8.01
2023-03-22T06:17:06.800Z,6.40
2023-03-22T06:18:06.785Z,7.69
2023-03-22T06:19:06.784Z,8.01
2023-03-22T06:20:06.775Z,7.69
2023-03-22T06:21:06.744Z,6.07
2023-03-22T06:22:06.764Z,8.65
2023-03-22T06:23:06.727Z,7.04
2023-03-22T06:24:06.831Z,8.01
2023-03-22T06:25:06.770Z,8.01
2023-03-22T06:26:06.699Z,8.01
2023-03-22T06:27:07.035Z,7.69
2023-03-22T06:28:08.676Z,7.69
2023-03-22T06:29:06.670Z,7.36
2023-03-22T06:30:06.751Z,8.65
2023-03-22T06:31:06.714Z,7.36
2023-03-22T06:32:07.022Z,7.36
2023-03-22T06:33:06.614Z,8.33
2023-03-22T06:34:06.608Z,7.36
2023-03-22T06:35:06.603Z,7.36
2023-03-22T06:36:06.592Z,8.01
2023-03-22T06:37:06.913Z,5.75
2023-03-22T06:38:06.562Z,7.69
2023-03-22T06:39:06.549Z,7.36
2023-03-22T06:40:06.634Z,7.04
2023-03-22T06:41:06.536Z,6.40
2023-03-22T06:42:06.838Z,7.36
2023-03-22T06:43:07.390Z,5.75
2023-03-22T06:44:06.496Z,8.33
2023-03-22T06:45:06.487Z,7.36
2023-03-22T06:46:06.533Z,8.01
2023-03-22T06:47:06.792Z,7.69
2023-03-22T06:48:06.489Z,3.17
2023-03-22T06:49:06.452Z,7.36
2023-03-22T06:50:06.480Z,8.33
2023-03-22T06:51:06.424Z,8.01
2023-03-22T06:52:06.806Z,8.01
2023-03-22T06:53:06.403Z,6.40
2023-03-22T06:54:06.400Z,7.36
2023-03-22T06:55:06.386Z,8.01
2023-03-22T06:56:06.379Z,7.36
2023-03-22T06:57:06.375Z,7.36
2023-03-22T06:58:06.350Z,8.01
2023-03-22T06:59:06.345Z,9.62
2023-03-22T07:00:06.346Z,8.33
2023-03-22T07:01:06.355Z,8.33
2023-03-22T07:02:06.623Z,8.33
2023-03-22T07:03:06.305Z,8.01
2023-03-22T07:04:06.334Z,8.33
2023-03-22T07:05:06.280Z,8.01
2023-03-22T07:06:06.281Z,8.65
2023-03-22T07:07:06.267Z,8.65
2023-03-22T07:08:06.262Z,8.33
2023-03-22T07:09:06.251Z,8.33
2023-03-22T07:10:06.240Z,6.72
2023-03-22T07:11:06.217Z,8.01
2023-03-22T07:12:06.235Z,7.69
2023-03-22T07:13:06.209Z,8.33
2023-03-22T07:14:06.199Z,8.01
2023-03-22T07:15:06.236Z,8.65
2023-03-22T07:16:06.237Z,8.65
2023-03-22T07:17:06.181Z,7.69
2023-03-22T07:18:06.144Z,8.65
2023-03-22T07:19:06.148Z,8.97
2023-03-22T07:20:06.151Z,8.97
2023-03-22T07:21:06.120Z,8.97
2023-03-22T07:22:06.125Z,8.01
2023-03-22T07:23:06.108Z,6.40
2023-03-22T07:24:06.081Z,9.30
2023-03-22T07:25:06.093Z,8.33
2023-03-22T07:26:06.162Z,8.01
2023-03-22T07:27:06.072Z,9.30
2023-03-22T07:28:06.056Z,5.75
2023-03-22T07:29:06.055Z,8.33
2023-03-22T07:30:07.711Z,8.65
2023-03-22T07:31:06.046Z,9.62
2023-03-22T07:32:06.052Z,9.94
2023-03-22T07:33:06.006Z,9.62
2023-03-22T07:34:05.996Z,10.26
2023-03-22T07:35:06.010Z,10.26
2023-03-22T07:36:05.976Z,8.97
2023-03-22T07:37:05.995Z,9.94
2023-03-22T07:38:05.959Z,10.59
2023-03-22T07:39:05.960Z,10.26
2023-03-22T07:40:05.943Z,10.26
2023-03-22T07:41:05.975Z,9.62
2023-03-22T07:42:05.934Z,11.23
2023-03-22T07:43:05.913Z,9.62
2023-03-22T07:44:17.369Z,9.94
2023-03-22T07:45:05.968Z,9.94
2023-03-22T07:46:05.882Z,8.97
2023-03-22T07:47:05.903Z,9.94
2023-03-22T07:48:05.944Z,8.97
2023-03-22T07:49:05.864Z,9.30
2023-03-22T07:50:06.037Z,9.30
2023-03-22T07:51:05.855Z,12.52
2023-03-22T07:52:05.868Z,10.59
2023-03-22T07:53:05.840Z,8.65
2023-03-22T07:54:07.689Z,9.94
2023-03-22T07:55:05.817Z,10.26
2023-03-22T07:56:05.803Z,10.91
2023-03-22T07:57:05.804Z,9.94
2023-03-22T07:58:05.786Z,9.94
2023-03-22T07:59:05.848Z,10.26
2023-03-22T08:00:05.822Z,9.30
2023-03-22T08:01:05.761Z,9.62
2023-03-22T08:02:05.788Z,10.26
2023-03-22T08:03:05.808Z,9.62
2023-03-22T08:04:05.753Z,9.94
2023-03-22T08:05:05.727Z,10.26
2023-03-22T08:06:05.711Z,10.91
2023-03-22T08:07:05.719Z,9.62
2023-03-22T08:08:06.170Z,7.69
2023-03-22T08:09:05.699Z,8.33
2023-03-22T08:10:05.691Z,9.30
2023-03-22T08:11:05.667Z,9.94
2023-03-22T08:12:05.667Z,9.30
2023-03-22T08:13:06.015Z,10.59
2023-03-22T08:14:05.651Z,10.26
2023-03-22T08:15:05.650Z,9.62
2023-03-22T08:16:05.674Z,9.62
2023-03-22T08:17:05.641Z,8.65
2023-03-22T08:18:05.628Z,9.30
2023-03-22T08:19:05.704Z,9.30
2023-03-22T08:20:05.586Z,9.30
2023-03-22T08:21:05.579Z,9.94
2023-03-22T08:22:05.564Z,8.97
2023-03-22T08:23:05.624Z,9.62
2023-03-22T08:24:05.553Z,9.62
2023-03-22T08:25:05.560Z,9.94
2023-03-22T08:26:05.535Z,9.62
2023-03-22T08:27:05.521Z,9.94
2023-03-22T08:28:05.525Z,9.62
2023-03-22T08:29:05.503Z,9.62
2023-03-22T08:30:05.489Z,8.97
2023-03-22T08:31:05.487Z,8.97
2023-03-22T08:32:05.628Z,8.33
2023-03-22T08:33:05.482Z,10.26
2023-03-22T08:34:05.494Z,9.62
2023-03-22T08:35:05.449Z,9.94
2023-03-22T08:36:05.479Z,10.26
2023-03-22T08:37:05.430Z,9.94
2023-03-22T08:38:05.434Z,9.94
2023-03-22T08:39:05.411Z,9.94
2023-03-22T08:40:05.418Z,11.55
2023-03-22T08:41:05.409Z,10.26
2023-03-22T08:42:05.381Z,10.59
2023-03-22T08:43:05.386Z,11.23
2023-03-22T08:44:05.361Z,10.59
2023-03-22T08:45:05.349Z,10.26
2023-03-22T08:46:05.386Z,10.59
2023-03-22T08:47:05.355Z,9.94
2023-03-22T08:48:05.430Z,9.62
2023-03-22T08:49:05.321Z,9.62
2023-03-22T08:50:05.344Z,9.94
2023-03-22T08:51:05.304Z,10.26
2023-03-22T08:52:05.297Z,10.59
2023-03-22T08:53:05.312Z,10.26
2023-03-22T08:54:05.276Z,10.91
2023-03-22T08:55:05.264Z,11.87
2023-03-22T08:56:05.269Z,7.04
2023-03-22T08:57:05.248Z,10.26
2023-03-22T08:58:05.389Z,9.30
2023-03-22T08:59:05.231Z,10.59
2023-03-22T09:00:05.225Z,9.62
2023-03-22T09:01:05.334Z,10.59
2023-03-22T09:02:05.372Z,10.91
2023-03-22T09:03:05.380Z,10.59
2023-03-22T09:04:05.251Z,11.23
2023-03-22T09:05:05.177Z,10.91
2023-03-22T09:06:05.180Z,11.55
2023-03-22T09:07:05.162Z,11.55
2023-03-22T09:08:06.579Z,11.55
2023-03-22T09:09:05.150Z,9.62
2023-03-22T09:10:05.126Z,11.55
2023-03-22T09:11:05.153Z,10.91
2023-03-22T09:12:05.115Z,11.55
2023-03-22T09:13:05.132Z,11.55
2023-03-22T09:14:05.079Z,10.91
2023-03-22T09:15:05.072Z,13.16
2023-03-22T09:16:05.129Z,11.87
2023-03-22T09:17:05.053Z,11.87
2023-03-22T09:18:05.070Z,11.55
2023-03-22T09:19:05.035Z,11.87
2023-03-22T09:20:12.415Z,11.87
2023-03-22T09:21:05.023Z,12.20
2023-03-22T09:22:05.037Z,11.23
2023-03-22T09:23:05.309Z,12.84
2023-03-22T09:24:04.969Z,12.20
2023-03-22T09:25:04.978Z,12.52
2023-03-22T09:26:04.965Z,13.81
2023-03-22T09:27:04.950Z,12.20
2023-03-22T09:28:05.292Z,12.52
2023-03-22T09:29:04.925Z,12.84
2023-03-22T09:30:04.912Z,11.55
2023-03-22T09:31:04.935Z,12.84
2023-03-22T09:32:04.888Z,11.23
2023-03-22T09:33:05.645Z,11.55
2023-03-22T09:34:04.860Z,11.23
2023-03-22T09:35:04.875Z,11.23
2023-03-22T09:36:04.887Z,9.94
2023-03-22T09:37:04.834Z,11.87
2023-03-22T09:38:05.023Z,9.94
2023-03-22T09:39:04.811Z,11.87
2023-03-22T09:40:04.794Z,11.87
2023-03-22T09:41:04.794Z,11.55
2023-03-22T09:42:04.785Z,12.20
2023-03-22T09:43:05.109Z,10.91
2023-03-22T09:44:04.755Z,12.84
2023-03-22T09:45:04.754Z,12.84
2023-03-22T09:46:04.758Z,11.55
2023-03-22T09:47:04.750Z,11.23
2023-03-22T09:48:05.574Z,12.52
2023-03-22T09:49:04.729Z,11.55
2023-03-22T09:50:04.715Z,13.49
2023-03-22T09:51:04.688Z,12.52
2023-03-22T09:52:04.709Z,11.87
2023-03-22T09:53:05.042Z,11.55
2023-03-22T09:54:04.654Z,12.84
2023-03-22T09:55:04.652Z,11.55
2023-03-22T09:56:04.632Z,12.84
2023-03-22T09:57:04.635Z,13.16
2023-03-22T09:58:04.964Z,10.91
2023-03-22T09:59:04.649Z,12.84
2023-03-22T10:00:04.590Z,12.84
2023-03-22T10:01:04.708Z,10.26
2023-03-22T10:02:04.832Z,11.23
2023-03-22T10:03:04.576Z,11.87
2023-03-22T10:04:04.586Z,10.91
2023-03-22T10:05:04.578Z,11.23
2023-03-22T10:06:04.529Z,11.87
2023-03-22T10:07:04.529Z,11.55
2023-03-22T10:08:04.910Z,12.52
2023-03-22T10:09:04.508Z,12.84
2023-03-22T10:10:04.495Z,12.20
2023-03-22T10:11:04.465Z,13.16
2023-03-22T10:12:04.453Z,13.49
2023-03-22T10:13:04.520Z,14.45
2023-03-22T10:14:04.530Z,13.81
2023-03-22T10:15:04.469Z,13.16
2023-03-22T10:16:04.470Z,14.13
2023-03-22T10:17:04.416Z,12.84
2023-03-22T10:18:04.399Z,13.49
2023-03-22T10:19:04.393Z,12.84
2023-03-22T10:20:04.367Z,13.16
2023-03-22T10:21:04.358Z,14.13
2023-03-22T10:22:04.331Z,13.81
2023-03-22T10:23:04.702Z,13.81
2023-03-22T10:24:04.317Z,14.13
2023-03-22T10:25:04.300Z,13.49
2023-03-22T10:26:04.287Z,13.49
2023-03-22T10:27:04.276Z,13.49
2023-03-22T10:28:04.278Z,13.49
2023-03-22T10:29:04.299Z,13.16
2023-03-22T10:30:04.236Z,13.16
2023-03-22T10:31:05.892Z,13.49
2023-03-22T10:32:04.223Z,12.52
2023-03-22T10:33:05.235Z,12.52
2023-03-22T10:34:04.184Z,11.87
2023-03-22T10:35:04.172Z,13.16
2023-03-22T10:36:04.188Z,13.16
2023-03-22T10:37:04.160Z,12.84
2023-03-22T10:38:04.496Z,12.84
2023-03-22T10:39:04.148Z,13.49
2023-03-22T10:40:04.114Z,13.49
2023-03-22T10:41:04.105Z,12.84
2023-03-22T10:42:04.087Z,13.49
2023-03-22T10:43:04.428Z,13.49
2023-03-22T10:44:04.057Z,13.16
2023-03-22T10:45:04.078Z,11.23
2023-03-22T10:46:04.050Z,13.16
2023-03-22T10:47:04.061Z,12.20
2023-03-22T10:48:04.815Z,13.16
2023-03-22T10:49:04.003Z,12.52
2023-03-22T10:50:04.027Z,13.16
2023-03-22T10:51:03.993Z,12.84
2023-03-22T10:52:04.007Z,12.84
2023-03-22T10:53:03.958Z,13.16
2023-03-22T10:54:03.958Z,12.52
2023-03-22T10:55:04.730Z,11.87
2023-03-22T10:56:03.911Z,13.16
2023-03-22T10:57:03.937Z,12.52
2023-03-22T10:58:03.890Z,12.52
2023-03-22T10:59:04.352Z,12.84
2023-03-22T11:00:03.856Z,12.52
2023-03-22T11:01:03.922Z,12.20
2023-03-22T11:02:04.092Z,12.52
2023-03-22T11:03:03.887Z,12.52
2023-03-22T11:04:04.156Z,11.55
2023-03-22T11:05:03.820Z,8.97
2023-03-22T11:06:03.784Z,11.87
2023-03-22T11:07:03.774Z,12.52
2023-03-22T11:08:03.767Z,12.52
2023-03-22T11:09:03.775Z,13.16
2023-03-22T11:10:03.799Z,12.84
2023-03-22T11:11:03.743Z,12.84
2023-03-22T11:12:03.718Z,12.52
2023-03-22T11:13:03.719Z,13.16
2023-03-22T11:14:04.206Z,12.84
2023-03-22T11:15:03.688Z,12.84
2023-03-22T11:16:03.744Z,11.87
2023-03-22T11:17:03.698Z,11.87
2023-03-22T11:18:03.635Z,12.84
2023-03-22T11:19:03.879Z,12.52
2023-03-22T11:20:03.650Z,12.84
2023-03-22T11:21:03.600Z,13.16
2023-03-22T11:22:03.579Z,11.87
2023-03-22T11:23:03.575Z,14.13
2023-03-22T11:24:03.581Z,13.16
2023-03-22T11:25:03.677Z,12.84
2023-03-22T11:26:03.556Z,12.84
2023-03-22T11:27:03.525Z,13.49
2023-03-22T11:28:03.538Z,13.49
2023-03-22T11:29:03.854Z,13.49
2023-03-22T11:30:03.508Z,14.45
2023-03-22T11:31:03.470Z,14.13
2023-03-22T11:32:03.501Z,14.45
2023-03-22T11:33:03.484Z,12.52
2023-03-22T11:34:03.825Z,13.16
2023-03-22T11:35:03.416Z,13.16
2023-03-22T11:36:03.514Z,13.49
2023-03-22T11:37:03.395Z,13.49
2023-03-22T11:38:03.387Z,13.16
2023-03-22T11:39:03.626Z,13.16
2023-03-22T11:40:03.369Z,13.49
2023-03-22T11:41:03.371Z,13.49
2023-03-22T11:42:03.369Z,12.52
2023-03-22T11:43:03.329Z,12.52
2023-03-22T11:44:03.488Z,12.52
2023-03-22T11:45:03.317Z,13.16
2023-03-22T11:46:03.394Z,12.84
2023-03-22T11:47:03.289Z,12.20
2023-03-22T11:48:03.415Z,12.52
2023-03-22T11:49:03.641Z,13.16
2023-03-22T11:50:03.242Z,13.16
2023-03-22T11:51:03.240Z,12.52
2023-03-22T11:52:04.980Z,13.49
2023-03-22T11:53:03.193Z,12.20
2023-03-22T11:54:03.203Z,13.49
2023-03-22T11:55:03.172Z,13.49
2023-03-22T11:56:03.188Z,13.16
2023-03-22T11:57:03.145Z,13.49
2023-03-22T11:58:03.136Z,13.49
2023-03-22T11:59:03.251Z,14.45
2023-03-22T12:00:03.124Z,13.49
2023-03-22T12:01:03.115Z,13.81
2023-03-22T12:02:03.121Z,13.49
2023-03-22T12:03:03.231Z,12.84
2023-03-22T12:04:03.312Z,13.81
2023-03-22T12:05:03.259Z,13.49
2023-03-22T12:06:03.135Z,13.81
2023-03-22T12:07:03.021Z,13.81
2023-03-22T12:08:03.025Z,14.45
2023-03-22T12:09:03.440Z,13.16
2023-03-22T12:10:02.989Z,12.52
2023-03-22T12:11:02.983Z,12.84
2023-03-22T12:12:02.962Z,13.81
2023-03-22T12:13:02.946Z,14.13
2023-03-22T12:14:03.193Z,13.16
2023-03-22T12:15:02.951Z,13.81
2023-03-22T12:16:03.026Z,14.78
2023-03-22T12:17:02.897Z,14.78
2023-03-22T12:18:02.960Z,14.13
2023-03-22T12:19:03.279Z,11.55
2023-03-22T12:20:02.868Z,14.13
2023-03-22T12:21:02.871Z,14.45
2023-03-22T12:22:02.841Z,13.49
2023-03-22T12:23:02.849Z,14.13
2023-03-22T12:24:03.167Z,14.13
2023-03-22T12:25:02.804Z,12.52
2023-03-22T12:26:02.817Z,12.84
2023-03-22T12:27:02.776Z,14.13
2023-03-22T12:28:02.765Z,13.81
2023-03-22T12:29:03.205Z,14.13
2023-03-22T12:30:02.749Z,13.49
2023-03-22T12:31:02.769Z,14.45
2023-03-22T12:32:02.739Z,14.13
2023-03-22T12:33:02.825Z,15.10
2023-03-22T12:34:02.968Z,13.81
2023-03-22T12:35:16.495Z,14.13
2023-03-22T12:36:02.721Z,14.13
2023-03-22T12:37:02.659Z,13.81
2023-03-22T12:38:02.668Z,14.45
2023-03-22T12:39:02.984Z,13.81
2023-03-22T12:40:02.637Z,13.49
2023-03-22T12:41:02.614Z,13.49
2023-03-22T12:42:02.605Z,14.78
2023-03-22T12:43:02.601Z,14.45
2023-03-22T12:44:02.748Z,13.49
2023-03-22T12:45:05.563Z,13.49
2023-03-22T12:46:02.562Z,14.13
2023-03-22T12:47:02.588Z,14.78
2023-03-22T12:48:02.710Z,13.16
2023-03-22T12:49:02.753Z,13.81
2023-03-22T12:50:02.517Z,15.10
2023-03-22T12:51:02.518Z,14.45
2023-03-22T12:52:02.508Z,14.78
2023-03-22T12:53:02.506Z,13.16
2023-03-22T12:54:02.489Z,14.13
2023-03-22T12:55:02.459Z,11.23
2023-03-22T12:56:02.501Z,14.45
2023-03-22T12:57:02.429Z,14.78
2023-03-22T12:58:02.432Z,14.78
2023-03-22T12:59:02.440Z,13.81
2023-03-22T13:00:02.419Z,14.78
2023-03-22T13:01:02.447Z,15.10
2023-03-22T13:02:02.380Z,12.52
2023-03-22T13:03:02.535Z,14.45
2023-03-22T13:04:02.482Z,15.10
2023-03-22T13:05:02.374Z,14.78
2023-03-22T13:06:02.375Z,14.13
2023-03-22T13:07:02.335Z,14.78
2023-03-22T13:08:02.339Z,14.78
2023-03-22T13:09:02.341Z,14.78
2023-03-22T13:10:02.310Z,12.20